createdAt,value
2018-09-22T00:00:37.753Z,4.50
2018-09-22T00:03:05.160Z,11.10
2018-09-22T00:05:32.259Z,7.10
2018-09-22T00:07:59.418Z,10.73
2018-09-22T00:10:26.464Z,5.30
2018-09-22T00:12:53.479Z,4.50
2018-09-22T00:15:20.591Z,5.17
2018-09-22T00:17:47.914Z,5.27
2018-09-22T00:20:14.993Z,16.60
2018-09-22T00:22:42.024Z,8.77
2018-09-22T00:25:09.406Z,13.00
2018-09-22T00:27:36.498Z,6.70
2018-09-22T00:30:03.540Z,9.17
2018-09-22T00:32:30.936Z,5.93
2018-09-22T00:34:57.968Z,12.30
2018-09-22T00:37:25.160Z,7.60
2018-09-22T00:39:52.261Z,8.07
2018-09-22T00:42:19.317Z,6.83
2018-09-22T00:44:46.462Z,8.50
2018-09-22T00:47:13.838Z,12.27
2018-09-22T00:49:40.956Z,7.73
2018-09-22T00:52:08.078Z,9.30
2018-09-22T00:54:35.477Z,4.77
2018-09-22T00:57:02.760Z,9.87
2018-09-22T00:59:29.788Z,9.93
2018-09-22T01:01:56.945Z,5.47
2018-09-22T01:04:24.037Z,6.73
2018-09-22T01:06:51.143Z,7.97
2018-09-22T01:09:18.585Z,7.13
2018-09-22T01:11:45.798Z,5.00
2018-09-22T01:14:12.819Z,5.33
2018-09-22T01:16:40.214Z,5.37
2018-09-22T01:19:07.429Z,4.63
2018-09-22T01:21:34.509Z,7.20
2018-09-22T01:24:01.543Z,8.17
2018-09-22T01:26:28.609Z,7.23
2018-09-22T01:28:55.690Z,5.07
2018-09-22T01:31:23.179Z,4.83
2018-09-22T01:33:50.280Z,8.23
2018-09-22T01:36:17.365Z,5.93
2018-09-22T01:38:44.797Z,7.63
2018-09-22T01:41:11.905Z,6.27
2018-09-22T01:43:39.007Z,3.00
2018-09-22T01:46:06.353Z,6.67
2018-09-22T01:48:33.422Z,4.10
2018-09-22T01:51:00.564Z,7.13
2018-09-22T01:53:27.632Z,9.13
2018-09-22T01:55:54.708Z,5.90
2018-09-22T01:58:21.788Z,5.87
2018-09-22T02:00:49.361Z,7.30
2018-09-22T02:03:16.485Z,10.43
2018-09-22T02:05:43.543Z,10.63
2018-09-22T02:08:10.942Z,8.93
2018-09-22T02:10:38.197Z,10.50
2018-09-22T02:13:05.254Z,5.20
2018-09-22T02:15:32.315Z,7.40
2018-09-22T02:17:59.403Z,8.83
2018-09-22T02:20:26.432Z,9.10
2018-09-22T02:22:53.748Z,8.90
2018-09-22T02:25:20.861Z,16.83
2018-09-22T02:27:47.922Z,6.77
2018-09-22T02:30:15.407Z,7.10
2018-09-22T02:32:42.469Z,10.13
2018-09-22T02:35:09.505Z,9.27
2018-09-22T02:37:36.958Z,6.70
2018-09-22T02:40:04.077Z,7.73
2018-09-22T02:42:31.145Z,9.33
2018-09-22T02:44:58.193Z,9.33
2018-09-22T02:47:25.265Z,5.30
2018-09-22T02:49:52.347Z,9.53
2018-09-22T02:52:19.681Z,3.67
2018-09-22T02:54:46.749Z,4.90
2018-09-22T02:57:13.790Z,8.43
2018-09-22T02:59:40.946Z,7.07
2018-09-22T03:02:08.079Z,8.90
2018-09-22T03:04:35.116Z,5.77
2018-09-22T03:07:02.451Z,8.33
2018-09-22T03:09:29.482Z,7.97
2018-09-22T03:11:56.558Z,11.77
2018-09-22T03:14:23.956Z,9.27
2018-09-22T03:16:51.029Z,5.37
2018-09-22T03:19:18.093Z,5.93
2018-09-22T03:21:45.148Z,9.10
2018-09-22T03:24:12.192Z,13.87
2018-09-22T03:26:39.270Z,6.07
2018-09-22T03:29:06.625Z,9.57
2018-09-22T03:31:33.738Z,8.40
2018-09-22T03:34:00.869Z,5.83
2018-09-22T03:36:28.318Z,6.20
2018-09-22T03:38:55.410Z,8.87
2018-09-22T03:41:22.510Z,6.30
2018-09-22T03:43:49.600Z,9.00
2018-09-22T03:46:16.664Z,7.50
2018-09-22T03:48:43.757Z,10.83
2018-09-22T03:51:11.213Z,3.70
2018-09-22T03:53:38.336Z,7.33
2018-09-22T03:56:05.446Z,4.37
2018-09-22T03:58:32.880Z,11.23
2018-09-22T04:01:00.040Z,8.73
2018-09-22T04:03:27.117Z,7.10
2018-09-22T04:05:54.217Z,5.17
2018-09-22T04:08:21.342Z,6.60
2018-09-22T04:10:48.481Z,8.50
2018-09-22T04:13:15.808Z,3.50
2018-09-22T04:15:42.877Z,4.63
2018-09-22T04:18:09.925Z,5.40
2018-09-22T04:20:37.325Z,6.93
2018-09-22T04:23:04.402Z,7.53
2018-09-22T04:25:31.523Z,5.43
2018-09-22T04:27:58.885Z,7.63
2018-09-22T04:30:25.970Z,4.33
2018-09-22T04:32:53.054Z,8.77
2018-09-22T04:35:20.107Z,6.13
2018-09-22T04:37:47.257Z,5.00
2018-09-22T04:40:14.339Z,8.73
2018-09-22T04:42:41.744Z,11.37
2018-09-22T04:45:08.875Z,6.20
2018-09-22T04:47:35.927Z,8.03
2018-09-22T04:50:03.434Z,12.03
2018-09-22T04:52:30.534Z,3.20
2018-09-22T04:54:57.589Z,4.93
2018-09-22T04:57:25.027Z,10.90
2018-09-22T04:59:52.056Z,2.70
2018-09-22T05:02:19.134Z,4.77
2018-09-22T05:04:46.197Z,4.13
2018-09-22T05:07:13.310Z,4.47
2018-09-22T05:09:40.509Z,4.30
2018-09-22T05:12:07.915Z,7.10
2018-09-22T05:14:34.984Z,9.90
2018-09-22T05:17:02.048Z,6.33
2018-09-22T05:19:29.096Z,9.63
2018-09-22T05:21:56.239Z,6.03
2018-09-22T05:24:23.322Z,7.00
2018-09-22T05:26:50.652Z,6.73
2018-09-22T05:29:17.727Z,4.63
2018-09-22T05:31:44.833Z,8.00
2018-09-22T05:34:11.884Z,5.03
2018-09-22T05:36:38.906Z,8.93
2018-09-22T05:39:06.869Z,8.57
2018-09-22T05:41:34.331Z,11.30
2018-09-22T05:44:01.450Z,9.40
2018-09-22T05:46:28.477Z,7.53
2018-09-22T05:48:55.892Z,7.00
2018-09-22T05:51:22.933Z,7.53
2018-09-22T05:53:50.066Z,18.27
2018-09-22T05:56:17.458Z,9.17
2018-09-22T05:58:44.526Z,6.73
2018-09-22T06:01:11.577Z,7.50
2018-09-22T06:03:38.738Z,9.63
2018-09-22T06:06:05.804Z,4.70
2018-09-22T06:08:32.910Z,9.50
2018-09-22T06:11:00.334Z,8.93
2018-09-22T06:13:27.389Z,7.20
2018-09-22T06:15:54.453Z,11.80
2018-09-22T06:18:21.566Z,6.73
2018-09-22T06:20:48.643Z,8.80
2018-09-22T06:23:15.900Z,11.23
2018-09-22T06:25:42.912Z,8.20
2018-09-22T06:28:09.993Z,6.57
2018-09-22T06:30:37.106Z,5.83
2018-09-22T06:33:04.424Z,5.43
2018-09-22T06:35:31.456Z,8.37
2018-09-22T06:37:58.641Z,3.23
2018-09-22T06:40:25.704Z,7.83
2018-09-22T06:42:52.761Z,4.03
2018-09-22T06:45:19.890Z,9.23
2018-09-22T06:47:47.362Z,4.53
2018-09-22T06:50:14.388Z,5.83
2018-09-22T06:52:41.464Z,10.07
2018-09-22T06:55:08.801Z,6.70
2018-09-22T06:57:35.896Z,4.47
2018-09-22T07:00:03.033Z,6.53
2018-09-22T07:02:30.430Z,6.40
2018-09-22T07:04:57.457Z,4.00
2018-09-22T07:07:24.610Z,6.87
2018-09-22T07:09:51.733Z,4.17
2018-09-22T07:12:18.802Z,5.50
2018-09-22T07:14:45.878Z,7.93
2018-09-22T07:17:13.228Z,12.20
2018-09-22T07:19:40.396Z,5.50
2018-09-22T07:22:13.507Z,3.70
2018-09-22T07:24:40.702Z,6.40
2018-09-22T07:27:07.805Z,8.10
2018-09-22T07:29:35.275Z,7.13
2018-09-22T07:32:02.344Z,9.33
2018-09-22T07:34:29.387Z,6.27
2018-09-22T07:36:56.581Z,5.60
2018-09-22T07:39:23.575Z,6.40
2018-09-22T07:41:50.618Z,8.67
2018-09-22T07:44:18.120Z,9.77
2018-09-22T07:46:45.164Z,7.20
2018-09-22T07:49:12.230Z,6.53
2018-09-22T07:51:39.632Z,4.90
2018-09-22T07:54:06.676Z,12.47
2018-09-22T07:56:33.759Z,9.30
2018-09-22T07:59:01.265Z,22.23
2018-09-22T08:01:28.342Z,11.33
2018-09-22T08:03:55.466Z,10.37
2018-09-22T08:06:22.827Z,4.90
2018-09-22T08:08:50.193Z,6.50
2018-09-22T08:11:17.281Z,5.83
2018-09-22T08:13:44.689Z,8.97
2018-09-22T08:16:11.817Z,9.27
2018-09-22T08:18:38.789Z,11.53
2018-09-22T08:21:06.154Z,8.93
2018-09-22T08:23:33.288Z,9.30
2018-09-22T08:26:00.368Z,8.27
2018-09-22T08:28:27.457Z,6.00
2018-09-22T08:30:54.591Z,10.93
2018-09-22T08:33:21.647Z,7.23
2018-09-22T08:35:48.998Z,5.93
2018-09-22T08:38:16.019Z,9.13
2018-09-22T08:40:43.007Z,6.97
2018-09-22T08:43:10.317Z,8.30
2018-09-22T08:45:37.327Z,7.60
2018-09-22T08:48:04.627Z,15.53
2018-09-22T08:50:31.634Z,9.77
2018-09-22T08:52:58.826Z,3.90
2018-09-22T08:55:25.942Z,8.90
2018-09-22T08:57:53.540Z,10.60
2018-09-22T09:00:20.593Z,9.67
2018-09-22T09:02:48.953Z,6.77
2018-09-22T09:05:16.444Z,8.57
2018-09-22T09:07:43.482Z,6.00
2018-09-22T09:10:10.463Z,10.17
2018-09-22T09:12:37.818Z,10.00
2018-09-22T09:15:04.816Z,9.23
2018-09-22T09:17:31.850Z,13.30
2018-09-22T09:19:59.035Z,14.33
2018-09-22T09:22:26.070Z,4.87
2018-09-22T09:24:53.199Z,20.03
2018-09-22T09:27:20.321Z,25.97
2018-09-22T09:29:47.341Z,6.30
2018-09-22T09:32:16.631Z,16.70
2018-09-22T09:34:44.474Z,10.80
2018-09-22T09:37:11.417Z,7.47
2018-09-22T09:39:38.609Z,15.70
2018-09-22T09:42:05.663Z,8.57
2018-09-22T09:44:32.634Z,5.53
2018-09-22T09:46:59.862Z,8.30
2018-09-22T09:49:26.949Z,5.63
2018-09-22T09:51:54.079Z,6.90
2018-09-22T09:54:21.227Z,8.27
2018-09-22T09:56:48.543Z,7.83
2018-09-22T09:59:15.541Z,17.13
2018-09-22T10:01:42.654Z,6.23
2018-09-22T10:04:09.931Z,8.43
2018-09-22T10:06:36.997Z,4.93
2018-09-22T10:09:06.145Z,5.10
2018-09-22T10:11:54.298Z,4.73
2018-09-22T10:14:21.475Z,10.03
2018-09-22T10:16:48.494Z,13.03
2018-09-22T10:19:15.896Z,5.70
2018-09-22T10:21:42.902Z,7.37
2018-09-22T10:24:09.918Z,6.63
2018-09-22T10:26:37.093Z,8.37
2018-09-22T10:29:04.225Z,5.87
2018-09-22T10:31:33.352Z,6.00
2018-09-22T10:34:02.700Z,6.30
2018-09-22T10:36:29.829Z,10.93
2018-09-22T10:38:56.852Z,5.60
2018-09-22T10:41:24.276Z,7.07
2018-09-22T10:43:51.540Z,14.00
2018-09-22T10:46:18.710Z,6.70
2018-09-22T10:48:45.849Z,6.60
2018-09-22T10:51:12.859Z,6.70
2018-09-22T10:53:40.011Z,8.70
2018-09-22T10:56:07.397Z,10.43
2018-09-22T10:58:34.467Z,5.97
2018-09-22T11:01:01.603Z,11.40
2018-09-22T11:03:29.174Z,13.33
2018-09-22T11:05:56.447Z,7.23
2018-09-22T11:08:23.593Z,9.97
2018-09-22T11:10:50.803Z,6.37
2018-09-22T11:13:18.013Z,5.43
2018-09-22T11:15:45.213Z,4.07
2018-09-22T11:18:12.604Z,4.43
2018-09-22T11:20:39.714Z,6.57
2018-09-22T11:23:06.798Z,6.47
2018-09-22T11:25:34.374Z,8.70
2018-09-22T11:28:01.510Z,5.73
2018-09-22T11:30:28.667Z,6.70
2018-09-22T11:32:55.766Z,4.80
2018-09-22T11:35:22.818Z,8.73
2018-09-22T11:37:49.963Z,11.93
2018-09-22T11:40:17.420Z,8.33
2018-09-22T11:42:44.562Z,6.97
2018-09-22T11:45:11.722Z,6.83
2018-09-22T11:47:39.330Z,7.60
2018-09-22T11:50:06.494Z,10.57
2018-09-22T11:52:33.745Z,16.20
2018-09-22T11:55:00.897Z,8.63
2018-09-22T11:57:28.075Z,17.00
2018-09-22T11:59:55.102Z,17.60
2018-09-22T12:02:22.610Z,12.60
2018-09-22T12:04:49.627Z,11.43
2018-09-22T12:07:16.741Z,13.27
2018-09-22T12:09:44.132Z,12.53
2018-09-22T12:12:11.345Z,8.63
2018-09-22T12:14:38.444Z,12.00
2018-09-22T12:17:05.626Z,8.97
2018-09-22T12:19:32.796Z,6.77
2018-09-22T12:21:59.929Z,6.13
2018-09-22T12:24:27.120Z,6.27
2018-09-22T12:26:54.221Z,6.13
2018-09-22T12:29:21.298Z,8.17
2018-09-22T12:31:48.826Z,7.13
2018-09-22T12:34:16.021Z,8.53
2018-09-22T12:36:43.209Z,8.23
2018-09-22T12:39:11.622Z,5.43
2018-09-22T12:41:39.201Z,5.13
2018-09-22T12:44:06.462Z,6.47
2018-09-22T12:46:34.225Z,9.20
2018-09-22T12:49:01.658Z,7.40
2018-09-22T12:51:28.768Z,6.83
2018-09-22T12:53:55.899Z,9.37
2018-09-22T12:56:22.938Z,6.03
2018-09-22T12:58:50.005Z,6.90
2018-09-22T13:01:17.427Z,8.70
2018-09-22T13:03:44.836Z,5.20
2018-09-22T13:06:12.002Z,11.00
2018-09-22T13:08:39.448Z,7.33
2018-09-22T13:11:06.442Z,7.50
2018-09-22T13:13:33.497Z,6.60
2018-09-22T13:16:00.594Z,4.00
2018-09-22T13:18:27.626Z,9.37
2018-09-22T13:20:54.674Z,5.83
2018-09-22T13:23:22.091Z,6.37
2018-09-22T13:25:49.160Z,5.27
2018-09-22T13:28:16.203Z,8.50
2018-09-22T13:30:43.672Z,9.90
2018-09-22T13:33:10.694Z,8.30
2018-09-22T13:35:37.734Z,4.53
2018-09-22T13:38:05.171Z,10.53
2018-09-22T13:40:32.214Z,6.27
2018-09-22T13:42:59.258Z,3.53
2018-09-22T13:45:26.302Z,5.60
2018-09-22T13:47:53.605Z,6.70
2018-09-22T13:50:20.739Z,5.23
2018-09-22T13:52:48.160Z,5.80
2018-09-22T13:55:15.240Z,4.90
2018-09-22T13:57:42.418Z,11.27
2018-09-22T14:00:09.929Z,7.30
2018-09-22T14:02:37.029Z,10.07
2018-09-22T14:05:04.273Z,5.20
2018-09-22T14:07:31.456Z,4.70
2018-09-22T14:09:58.607Z,7.87
2018-09-22T14:12:25.733Z,15.03
2018-09-22T14:14:53.339Z,7.10
2018-09-22T14:17:20.487Z,10.83
2018-09-22T14:19:47.572Z,8.30
2018-09-22T14:22:15.044Z,6.53
2018-09-22T14:24:42.090Z,7.93
2018-09-22T14:27:09.327Z,3.70
2018-09-22T14:29:36.727Z,5.37
2018-09-22T14:32:03.887Z,12.90
2018-09-22T14:34:30.968Z,10.30
2018-09-22T14:36:58.094Z,8.90
2018-09-22T14:39:25.241Z,10.57
2018-09-22T14:41:52.336Z,7.97
2018-09-22T14:44:19.812Z,7.63
2018-09-22T14:46:47.015Z,10.00
2018-09-22T14:49:14.121Z,6.77
2018-09-22T14:51:41.579Z,8.60
2018-09-22T14:54:08.910Z,4.10
2018-09-22T14:56:36.295Z,10.80
2018-09-22T14:59:03.758Z,5.00
2018-09-22T15:01:31.081Z,11.80
2018-09-22T15:03:58.238Z,17.13
2018-09-22T15:06:25.410Z,8.87
2018-09-22T15:08:52.409Z,23.70
2018-09-22T15:11:19.396Z,22.63
2018-09-22T15:13:46.855Z,38.07
2018-09-22T15:16:13.849Z,20.53
2018-09-22T15:18:40.791Z,15.03
2018-09-22T15:21:08.314Z,20.00
2018-09-22T15:23:35.547Z,15.93
2018-09-22T15:26:02.791Z,10.93
2018-09-22T15:28:30.140Z,17.03
2018-09-22T15:30:57.341Z,16.70
2018-09-22T15:33:24.438Z,32.17
2018-09-22T15:35:51.489Z,25.97
2018-09-22T15:38:18.502Z,12.37
2018-09-22T15:40:45.475Z,12.13
2018-09-22T15:43:13.070Z,20.93
2018-09-22T15:45:40.235Z,25.53
2018-09-22T15:48:07.315Z,11.60
2018-09-22T15:50:34.603Z,11.70
2018-09-22T15:53:01.690Z,17.13
2018-09-22T15:55:28.682Z,14.77
2018-09-22T15:57:56.137Z,13.07
2018-09-22T16:00:23.356Z,19.83
2018-09-22T16:02:50.632Z,27.57
2018-09-22T16:05:17.761Z,15.30
2018-09-22T16:07:44.796Z,16.13
2018-09-22T16:10:11.853Z,8.83
2018-09-22T16:12:39.311Z,16.37
2018-09-22T16:15:06.265Z,8.37
2018-09-22T16:17:33.224Z,15.43
2018-09-22T16:20:00.566Z,10.57
2018-09-22T16:22:27.919Z,9.37
2018-09-22T16:24:55.273Z,19.50
2018-09-22T16:27:22.703Z,16.37
2018-09-22T16:29:49.730Z,14.90
2018-09-22T16:32:16.778Z,18.17
2018-09-22T16:34:44.090Z,27.30
2018-09-22T16:37:11.149Z,11.17
2018-09-22T16:39:38.270Z,14.00
2018-09-22T16:42:05.525Z,8.50
2018-09-22T16:44:32.682Z,6.80
2018-09-22T16:46:59.726Z,11.43
2018-09-22T16:49:27.069Z,14.13
2018-09-22T16:51:54.144Z,5.07
2018-09-22T16:54:21.280Z,7.00
2018-09-22T16:56:48.462Z,9.53
2018-09-22T16:59:15.515Z,10.63
2018-09-22T17:01:42.860Z,7.20
2018-09-22T17:04:10.231Z,7.40
2018-09-22T17:06:37.289Z,9.90
2018-09-22T17:09:05.952Z,13.10
2018-09-22T17:11:33.113Z,10.23
2018-09-22T17:14:00.403Z,7.00
2018-09-22T17:16:27.440Z,6.27
2018-09-22T17:18:54.787Z,7.93
2018-09-22T17:21:21.961Z,7.13
2018-09-22T17:23:49.004Z,7.87
2018-09-22T17:26:16.189Z,8.53
2018-09-22T17:28:43.510Z,9.43
2018-09-22T17:31:10.520Z,6.90
2018-09-22T17:33:37.864Z,6.80
2018-09-22T17:36:05.401Z,6.60
2018-09-22T17:38:32.495Z,8.53
2018-09-22T17:41:00.024Z,5.30
2018-09-22T17:43:27.268Z,10.73
2018-09-22T17:45:54.318Z,7.70
2018-09-22T17:48:21.613Z,4.80
2018-09-22T17:50:48.814Z,8.90
2018-09-22T17:53:16.082Z,9.60
2018-09-22T17:55:43.236Z,8.83
2018-09-22T17:58:10.322Z,9.93
2018-09-22T18:00:37.322Z,13.77
2018-09-22T18:03:04.877Z,13.83
2018-09-22T18:05:32.098Z,19.07
2018-09-22T18:07:59.147Z,14.20
2018-09-22T18:10:26.574Z,26.23
2018-09-22T18:12:53.746Z,24.60
2018-09-22T18:15:21.549Z,22.43
2018-09-22T18:17:49.198Z,14.70
2018-09-22T18:20:16.430Z,23.07
2018-09-22T18:22:43.639Z,26.97
2018-09-22T18:25:10.786Z,13.03
2018-09-22T18:27:37.781Z,13.00
2018-09-22T18:30:05.095Z,29.87
2018-09-22T18:32:32.464Z,25.77
2018-09-22T18:34:59.659Z,23.30
2018-09-22T18:37:26.769Z,32.57
2018-09-22T18:39:54.304Z,28.07
2018-09-22T18:42:21.358Z,13.57
2018-09-22T18:44:48.593Z,40.77
2018-09-22T18:47:16.098Z,87.53
2018-09-22T18:49:43.101Z,40.50
2018-09-22T18:52:10.258Z,70.43
2018-09-22T18:54:37.419Z,24.07
2018-09-22T18:57:04.511Z,22.20
2018-09-22T18:59:31.598Z,21.80
2018-09-22T19:01:59.059Z,32.30
2018-09-22T19:04:26.205Z,25.70
2018-09-22T19:06:53.281Z,18.20
2018-09-22T19:09:20.340Z,26.57
2018-09-22T19:11:47.492Z,15.30
2018-09-22T19:14:22.359Z,13.53
2018-09-22T19:17:53.767Z,12.40
2018-09-22T19:20:25.050Z,6.10
2018-09-22T19:22:55.154Z,6.07
2018-09-22T19:25:24.503Z,7.07
2018-09-22T19:27:55.716Z,6.60
2018-09-22T19:30:41.488Z,13.03
2018-09-22T19:33:12.825Z,6.50
2018-09-22T19:35:43.104Z,8.23
2018-09-22T19:39:13.947Z,9.90
2018-09-22T19:41:48.934Z,8.10
2018-09-22T19:44:27.476Z,7.70
2018-09-22T19:46:58.060Z,7.87
2018-09-22T19:49:27.820Z,10.57
2018-09-22T19:51:58.644Z,10.93
2018-09-22T19:54:25.767Z,16.13
2018-09-22T19:56:53.363Z,10.23
2018-09-22T19:59:20.372Z,6.77
2018-09-22T20:01:47.461Z,11.00
2018-09-22T20:04:14.851Z,15.00
2018-09-22T20:06:42.887Z,7.00
2018-09-22T20:09:09.893Z,8.60
2018-09-22T20:11:37.021Z,8.40
2018-09-22T20:14:04.105Z,10.10
2018-09-22T20:16:31.160Z,5.37
2018-09-22T20:18:58.173Z,12.33
2018-09-22T20:21:25.420Z,4.43
2018-09-22T20:23:52.478Z,6.00
2018-09-22T20:26:19.782Z,5.30
2018-09-22T20:28:46.881Z,4.30
2018-09-22T20:31:13.959Z,4.57
2018-09-22T20:33:41.449Z,8.87
2018-09-22T20:36:08.531Z,3.80
2018-09-22T20:38:35.634Z,9.93
2018-09-22T20:41:03.227Z,6.80
2018-09-22T20:43:30.311Z,12.60
2018-09-22T20:45:57.410Z,10.17
2018-09-22T20:48:24.526Z,6.63
2018-09-22T20:50:51.720Z,13.43
2018-09-22T20:53:18.788Z,7.83
2018-09-22T20:55:46.243Z,10.10
2018-09-22T20:58:13.538Z,10.40
2018-09-22T21:00:40.786Z,15.20
2018-09-22T21:03:08.272Z,16.03
2018-09-22T21:05:35.473Z,15.37
2018-09-22T21:08:02.598Z,17.30
2018-09-22T21:10:30.064Z,20.97
2018-09-22T21:12:57.308Z,11.63
2018-09-22T21:15:24.418Z,15.33
2018-09-22T21:17:52.090Z,19.07
2018-09-22T21:20:19.207Z,13.33
2018-09-22T21:22:46.500Z,15.40
2018-09-22T21:25:14.164Z,11.80
2018-09-22T21:27:41.254Z,8.53
2018-09-22T21:30:08.337Z,5.43
2018-09-22T21:32:35.767Z,9.33
2018-09-22T21:35:03.046Z,10.67
2018-09-22T21:37:30.346Z,8.53
2018-09-22T21:39:57.537Z,8.03
2018-09-22T21:42:24.634Z,5.17
2018-09-22T21:44:52.072Z,7.00
2018-09-22T21:47:19.623Z,5.63
2018-09-22T21:49:46.631Z,3.60
2018-09-22T21:52:13.764Z,4.23
2018-09-22T21:54:41.166Z,4.87
2018-09-22T21:57:08.523Z,5.13
2018-09-22T21:59:35.701Z,7.37
2018-09-22T22:02:03.145Z,9.13
2018-09-22T22:04:30.213Z,6.80
2018-09-22T22:06:57.289Z,4.97
2018-09-22T22:09:24.857Z,8.27
2018-09-22T22:11:52.106Z,7.70
2018-09-22T22:14:19.200Z,5.30
2018-09-22T22:16:46.657Z,6.33
2018-09-22T22:19:13.865Z,6.13
2018-09-22T22:21:42.523Z,6.37
2018-09-22T22:24:10.033Z,5.03
2018-09-22T22:26:37.059Z,4.93
2018-09-22T22:29:04.214Z,4.43
2018-09-22T22:31:31.596Z,7.70
2018-09-22T22:33:58.615Z,3.73
2018-09-22T22:36:25.620Z,5.80
2018-09-22T22:38:52.816Z,6.17
2018-09-22T22:41:20.181Z,5.40
2018-09-22T22:43:47.300Z,4.80
2018-09-22T22:46:14.674Z,5.70
2018-09-22T22:48:41.961Z,8.63
2018-09-22T22:51:09.075Z,3.77
2018-09-22T22:53:36.695Z,4.23
2018-09-22T22:56:03.926Z,10.03
2018-09-22T22:58:30.967Z,5.80
2018-09-22T23:00:58.602Z,5.10
2018-09-22T23:03:25.819Z,4.20
2018-09-22T23:05:53.130Z,6.07
2018-09-22T23:08:20.088Z,6.53
2018-09-22T23:10:47.293Z,6.20
2018-09-22T23:13:14.480Z,3.57
2018-09-22T23:15:41.870Z,4.03
2018-09-22T23:18:08.925Z,4.03
2018-09-22T23:20:36.105Z,4.33
2018-09-22T23:23:03.377Z,5.77
2018-09-22T23:25:30.421Z,6.50
2018-09-22T23:27:57.433Z,5.10
2018-09-22T23:30:24.851Z,8.07
2018-09-22T23:32:51.826Z,6.17
2018-09-22T23:35:18.872Z,6.30
2018-09-22T23:37:46.070Z,9.23
2018-09-22T23:40:13.068Z,10.70
2018-09-22T23:42:40.214Z,8.27
2018-09-22T23:45:07.867Z,9.37
2018-09-22T23:47:34.858Z,7.87
2018-09-22T23:50:01.942Z,8.23
2018-09-22T23:52:29.427Z,6.60
2018-09-22T23:54:56.537Z,9.20
2018-09-22T23:57:23.525Z,7.70
2018-09-22T23:59:50.534Z,17.53
